KLM3MD EHAM-EDDB
Flight info
| Callsign | KLM3MD |
|---|---|
| Flight time | 0h 56m |
| Altitude | 35000 |
| Route | ARNEM L620 SUVOX Z718 OSNAD DCT BATEL T207 OGBER OGBER1L |
| Aircraft | B737/M-SDE2E3FGHIRWXY/LB1 |
Departure
| Time | 2026-05-04 07:10 |
|---|---|
| Airport | Amsterdam Airport Schiphol (EHAM) |
Arrival
| Time | 2026-05-04 08:06 |
|---|---|
| Airport | Berlin Brandenburg Airport (EDDB) |
| Time | Latitude | Longitude | Altitude | Speed | Heading |
|---|---|---|---|---|---|
| 2026-05-04 06:44 | 52.30895 | 4.77236 | -4 ft | 0 kts | 3° |
| 2026-05-04 07:01 | 52.30894 | 4.77235 | -4 ft | 1 kts | 5° |
| 2026-05-04 07:01 | 52.30880 | 4.77234 | -4 ft | 2 kts | 4° |
| 2026-05-04 07:02 | 52.30864 | 4.77232 | -4 ft | 2 kts | 5° |
| 2026-05-04 07:02 | 52.30850 | 4.77226 | -4 ft | 2 kts | 41° |
| 2026-05-04 07:02 | 52.30841 | 4.77205 | -4 ft | 2 kts | 81° |
| 2026-05-04 07:02 | 52.30841 | 4.77193 | -4 ft | 1 kts | 98° |
| 2026-05-04 07:03 | 52.30842 | 4.77187 | -4 ft | 0 kts | 94° |
| 2026-05-04 07:04 | 52.30842 | 4.77192 | -4 ft | 1 kts | 89° |
| 2026-05-04 07:05 | 52.30842 | 4.77208 | -4 ft | 1 kts | 87° |
| 2026-05-04 07:05 | 52.30842 | 4.77286 | -4 ft | 10 kts | 92° |
| 2026-05-04 07:05 | 52.30839 | 4.77384 | -4 ft | 6 kts | 92° |
| 2026-05-04 07:05 | 52.30838 | 4.77452 | -4 ft | 4 kts | 93° |
| 2026-05-04 07:06 | 52.30874 | 4.77599 | -4 ft | 11 kts | 16° |
| 2026-05-04 07:06 | 52.30955 | 4.77613 | -4 ft | 11 kts | 4° |
| 2026-05-04 07:06 | 52.31034 | 4.77621 | -4 ft | 10 kts | 3° |
| 2026-05-04 07:07 | 52.31104 | 4.77628 | -4 ft | 8 kts | 4° |
| 2026-05-04 07:08 | 52.31581 | 4.77601 | -4 ft | 10 kts | 63° |
| 2026-05-04 07:09 | 52.31592 | 4.77735 | -4 ft | 13 kts | 86° |
| 2026-05-04 07:09 | 52.31585 | 4.77917 | -4 ft | 18 kts | 124° |
| 2026-05-04 07:09 | 52.31379 | 4.77954 | -4 ft | 60 kts | 183° |
| 2026-05-04 07:09 | 52.30677 | 4.77888 | -4 ft | 138 kts | 182° |
| 2026-05-04 07:10 | 52.29568 | 4.77770 | 522 ft | 160 kts | 185° |
| 2026-05-04 07:10 | 52.28459 | 4.77459 | 1304 ft | 170 kts | 186° |
| 2026-05-04 07:12 | 52.25454 | 4.91785 | 5981 ft | 272 kts | 93° |
| 2026-05-04 07:12 | 52.25359 | 4.94948 | 6803 ft | 282 kts | 94° |
| 2026-05-04 07:12 | 52.25263 | 4.98171 | 7714 ft | 287 kts | 94° |
| 2026-05-04 07:12 | 52.25167 | 5.01456 | 8612 ft | 293 kts | 94° |
| 2026-05-04 07:13 | 52.25067 | 5.04884 | 9524 ft | 298 kts | 94° |
| 2026-05-04 07:13 | 52.24968 | 5.08258 | 10350 ft | 305 kts | 94° |
| 2026-05-04 07:13 | 52.24860 | 5.11900 | 10960 ft | 321 kts | 94° |
| 2026-05-04 07:14 | 52.24374 | 5.27557 | 13001 ft | 383 kts | 95° |
| 2026-05-04 07:14 | 52.24178 | 5.32025 | 13438 ft | 399 kts | 96° |
| 2026-05-04 07:15 | 52.23940 | 5.36684 | 14023 ft | 410 kts | 96° |
| 2026-05-04 07:15 | 52.23689 | 5.41374 | 14684 ft | 418 kts | 96° |
| 2026-05-04 07:15 | 52.23414 | 5.46136 | 15456 ft | 422 kts | 98° |
| 2026-05-04 07:15 | 52.22968 | 5.50906 | 16202 ft | 426 kts | 103° |
| 2026-05-04 07:16 | 52.22259 | 5.55721 | 16999 ft | 428 kts | 108° |
| 2026-05-04 07:16 | 52.21347 | 5.60340 | 17698 ft | 431 kts | 112° |
| 2026-05-04 07:16 | 52.20250 | 5.65089 | 18412 ft | 435 kts | 115° |
| 2026-05-04 07:16 | 52.19117 | 5.69683 | 19070 ft | 440 kts | 116° |
| 2026-05-04 07:17 | 52.17958 | 5.74291 | 19684 ft | 446 kts | 116° |
| 2026-05-04 07:17 | 52.16770 | 5.79018 | 20335 ft | 451 kts | 116° |
| 2026-05-04 07:17 | 52.15586 | 5.83746 | 20973 ft | 455 kts | 116° |
| 2026-05-04 07:17 | 52.14395 | 5.88521 | 21516 ft | 461 kts | 116° |
| 2026-05-04 07:18 | 52.13191 | 5.93368 | 22147 ft | 465 kts | 116° |
| 2026-05-04 07:18 | 52.11968 | 5.98297 | 22707 ft | 470 kts | 117° |
| 2026-05-04 07:18 | 52.10813 | 6.03101 | 23221 ft | 476 kts | 115° |
| 2026-05-04 07:18 | 52.09783 | 6.08303 | 23816 ft | 483 kts | 110° |
| 2026-05-04 07:19 | 52.08970 | 6.13673 | 24393 ft | 490 kts | 107° |
| 2026-05-04 07:19 | 52.08302 | 6.19127 | 24979 ft | 494 kts | 104° |
| 2026-05-04 07:19 | 52.07698 | 6.24735 | 25500 ft | 500 kts | 103° |
| 2026-05-04 07:19 | 52.07133 | 6.30352 | 26014 ft | 505 kts | 103° |
| 2026-05-04 07:20 | 52.06578 | 6.35986 | 26536 ft | 509 kts | 103° |
| 2026-05-04 07:20 | 52.06018 | 6.41660 | 27064 ft | 512 kts | 103° |
| 2026-05-04 07:20 | 52.05445 | 6.47372 | 27673 ft | 513 kts | 103° |
| 2026-05-04 07:20 | 52.04854 | 6.53157 | 28366 ft | 512 kts | 103° |
| 2026-05-04 07:22 | 52.00162 | 6.91997 | 32824 ft | 492 kts | 109° |
| 2026-05-04 07:22 | 51.99264 | 6.97393 | 33414 ft | 489 kts | 109° |
| 2026-05-04 07:23 | 51.98399 | 7.02531 | 33947 ft | 486 kts | 109° |
| 2026-05-04 07:23 | 51.97606 | 7.07470 | 34451 ft | 484 kts | 107° |
| 2026-05-04 07:23 | 51.97004 | 7.12811 | 34881 ft | 485 kts | 99° |
| 2026-05-04 07:23 | 51.97061 | 7.18292 | 34955 ft | 495 kts | 83° |
| 2026-05-04 07:24 | 51.97910 | 7.23687 | 34968 ft | 497 kts | 72° |
| 2026-05-04 07:24 | 51.99117 | 7.28799 | 34964 ft | 496 kts | 68° |
| 2026-05-04 07:24 | 52.01868 | 7.39029 | 34963 ft | 496 kts | 67° |
| 2026-05-04 07:26 | 52.10825 | 7.80647 | 34968 ft | 495 kts | 74° |
| 2026-05-04 07:27 | 52.12904 | 7.91403 | 34962 ft | 495 kts | 74° |
| 2026-05-04 07:27 | 52.14957 | 8.02067 | 34969 ft | 495 kts | 74° |
| 2026-05-04 07:28 | 52.17009 | 8.12760 | 34967 ft | 495 kts | 74° |
| 2026-05-04 07:28 | 52.19057 | 8.23478 | 34970 ft | 496 kts | 74° |
| 2026-05-04 07:29 | 52.21009 | 8.34262 | 34967 ft | 496 kts | 77° |
| 2026-05-04 07:29 | 52.22523 | 8.45180 | 34967 ft | 494 kts | 80° |
| 2026-05-04 07:30 | 52.23842 | 8.55755 | 34966 ft | 494 kts | 80° |
| 2026-05-04 07:30 | 52.25216 | 8.66732 | 34963 ft | 495 kts | 81° |
| 2026-05-04 07:31 | 52.26622 | 8.77715 | 34971 ft | 494 kts | 81° |
| 2026-05-04 07:33 | 52.32282 | 9.21577 | 34969 ft | 496 kts | 81° |
| 2026-05-04 07:33 | 52.33688 | 9.32640 | 34972 ft | 496 kts | 81° |
| 2026-05-04 07:34 | 52.35070 | 9.43600 | 34970 ft | 496 kts | 81° |
| 2026-05-04 07:34 | 52.36448 | 9.54626 | 34969 ft | 496 kts | 81° |
| 2026-05-04 07:35 | 52.37818 | 9.65672 | 34968 ft | 496 kts | 82° |
| 2026-05-04 07:35 | 52.39175 | 9.76682 | 34970 ft | 495 kts | 82° |
| 2026-05-04 07:36 | 52.40522 | 9.87727 | 34970 ft | 497 kts | 82° |
| 2026-05-04 07:38 | 52.45812 | 10.31992 | 34965 ft | 497 kts | 81° |
| 2026-05-04 07:38 | 52.47113 | 10.43110 | 34965 ft | 498 kts | 81° |
| 2026-05-04 07:39 | 52.48402 | 10.54217 | 34963 ft | 498 kts | 82° |
| 2026-05-04 07:39 | 52.49685 | 10.65368 | 34962 ft | 498 kts | 83° |
| 2026-05-04 07:40 | 52.50959 | 10.76549 | 34959 ft | 499 kts | 82° |
| 2026-05-04 07:40 | 52.52224 | 10.87744 | 34957 ft | 500 kts | 82° |
| 2026-05-04 07:41 | 52.53476 | 10.98921 | 34955 ft | 498 kts | 82° |
| 2026-05-04 07:41 | 52.54650 | 11.10099 | 34684 ft | 495 kts | 85° |
| 2026-05-04 07:42 | 52.54994 | 11.15702 | 34190 ft | 489 kts | 89° |
| 2026-05-04 07:42 | 52.55185 | 11.21175 | 33518 ft | 488 kts | 90° |
| 2026-05-04 07:42 | 52.55304 | 11.26788 | 32736 ft | 489 kts | 90° |
| 2026-05-04 07:42 | 52.55389 | 11.32301 | 31913 ft | 491 kts | 90° |
| 2026-05-04 07:43 | 52.55469 | 11.37876 | 31056 ft | 494 kts | 90° |
| 2026-05-04 07:43 | 52.55550 | 11.43463 | 30131 ft | 496 kts | 90° |
| 2026-05-04 07:43 | 52.55636 | 11.49068 | 29176 ft | 498 kts | 90° |
| 2026-05-04 07:43 | 52.55728 | 11.54742 | 28197 ft | 499 kts | 90° |
| 2026-05-04 07:44 | 52.55827 | 11.60448 | 27176 ft | 501 kts | 90° |
| 2026-05-04 07:44 | 52.55930 | 11.66215 | 26106 ft | 503 kts | 90° |
| 2026-05-04 07:44 | 52.56034 | 11.71932 | 25008 ft | 505 kts | 90° |
| 2026-05-04 07:44 | 52.56139 | 11.77648 | 23931 ft | 506 kts | 90° |
| 2026-05-04 07:45 | 52.56244 | 11.83407 | 23357 ft | 495 kts | 90° |
| 2026-05-04 07:45 | 52.56347 | 11.88991 | 22785 ft | 486 kts | 90° |
| 2026-05-04 07:45 | 52.56446 | 11.94512 | 22153 ft | 479 kts | 90° |
| 2026-05-04 07:45 | 52.56540 | 11.99961 | 21489 ft | 475 kts | 90° |
| 2026-05-04 07:46 | 52.56630 | 12.05327 | 20825 ft | 475 kts | 90° |
| 2026-05-04 07:46 | 52.56712 | 12.10759 | 20157 ft | 469 kts | 91° |
| 2026-05-04 07:46 | 52.56753 | 12.16080 | 19478 ft | 463 kts | 92° |
| 2026-05-04 07:46 | 52.56788 | 12.21371 | 18789 ft | 458 kts | 90° |
| 2026-05-04 07:47 | 52.57004 | 12.26601 | 18130 ft | 453 kts | 86° |
| 2026-05-04 07:47 | 52.57388 | 12.31761 | 17458 ft | 449 kts | 83° |
| 2026-05-04 07:47 | 52.57851 | 12.36741 | 16810 ft | 444 kts | 82° |
| 2026-05-04 07:49 | 52.61259 | 12.70830 | 12185 ft | 419 kts | 82° |
| 2026-05-04 07:49 | 52.61715 | 12.75521 | 11931 ft | 413 kts | 82° |
| 2026-05-04 07:49 | 52.62205 | 12.80193 | 11935 ft | 417 kts | 81° |
| 2026-05-04 07:50 | 52.62723 | 12.84932 | 11938 ft | 418 kts | 81° |
| 2026-05-04 07:50 | 52.63252 | 12.89704 | 11936 ft | 418 kts | 81° |
| 2026-05-04 07:50 | 52.63772 | 12.94409 | 11757 ft | 420 kts | 81° |
| 2026-05-04 07:50 | 52.64294 | 12.99174 | 11166 ft | 416 kts | 81° |
| 2026-05-04 07:51 | 52.64794 | 13.03775 | 10446 ft | 413 kts | 81° |
| 2026-05-04 07:51 | 52.65293 | 13.08386 | 9713 ft | 410 kts | 81° |
| 2026-05-04 07:51 | 52.65786 | 13.12960 | 9357 ft | 396 kts | 81° |
| 2026-05-04 07:51 | 52.66254 | 13.17329 | 9103 ft | 381 kts | 81° |
| 2026-05-04 07:52 | 52.66704 | 13.21547 | 8855 ft | 368 kts | 81° |
| 2026-05-04 07:52 | 52.67141 | 13.25674 | 8600 ft | 356 kts | 81° |
| 2026-05-04 07:52 | 52.67554 | 13.29564 | 8355 ft | 346 kts | 81° |
| 2026-05-04 07:52 | 52.67964 | 13.33421 | 8104 ft | 336 kts | 81° |
| 2026-05-04 07:53 | 52.68365 | 13.37228 | 7944 ft | 324 kts | 81° |
| 2026-05-04 07:54 | 52.70811 | 13.60942 | 7942 ft | 297 kts | 83° |
| 2026-05-04 07:55 | 52.71149 | 13.64279 | 7964 ft | 295 kts | 82° |
| 2026-05-04 07:55 | 52.71438 | 13.67600 | 7966 ft | 290 kts | 90° |
| 2026-05-04 07:55 | 52.71262 | 13.70834 | 7965 ft | 277 kts | 112° |
| 2026-05-04 07:55 | 52.70315 | 13.73437 | 7954 ft | 252 kts | 144° |
| 2026-05-04 07:56 | 52.68903 | 13.74883 | 7846 ft | 235 kts | 164° |
| 2026-05-04 07:56 | 52.67369 | 13.75958 | 7576 ft | 243 kts | 162° |
| 2026-05-04 07:56 | 52.65833 | 13.77180 | 7265 ft | 244 kts | 159° |
| 2026-05-04 07:56 | 52.64319 | 13.78441 | 6959 ft | 244 kts | 159° |
| 2026-05-04 07:57 | 52.62789 | 13.79690 | 6648 ft | 243 kts | 160° |
| 2026-05-04 07:57 | 52.61271 | 13.80907 | 6335 ft | 243 kts | 160° |
| 2026-05-04 07:57 | 52.59773 | 13.82102 | 6042 ft | 242 kts | 160° |
| 2026-05-04 07:57 | 52.58237 | 13.83320 | 5752 ft | 241 kts | 160° |
| 2026-05-04 07:58 | 52.56743 | 13.84507 | 5460 ft | 240 kts | 160° |
| 2026-05-04 07:58 | 52.55240 | 13.85707 | 5239 ft | 236 kts | 160° |
| 2026-05-04 07:58 | 52.53796 | 13.86924 | 5162 ft | 227 kts | 156° |
| 2026-05-04 07:58 | 52.52452 | 13.88190 | 5099 ft | 218 kts | 155° |
| 2026-05-04 07:59 | 52.51181 | 13.89424 | 5042 ft | 207 kts | 155° |
| 2026-05-04 07:59 | 52.49963 | 13.90584 | 4989 ft | 193 kts | 156° |
| 2026-05-04 07:59 | 52.48765 | 13.91420 | 4925 ft | 184 kts | 174° |
| 2026-05-04 07:59 | 52.47549 | 13.91150 | 4845 ft | 177 kts | 212° |
| 2026-05-04 08:00 | 52.46713 | 13.89695 | 4658 ft | 175 kts | 239° |
| 2026-05-04 08:00 | 52.46143 | 13.87916 | 4445 ft | 174 kts | 244° |
| 2026-05-04 08:00 | 52.45649 | 13.86122 | 4265 ft | 173 kts | 247° |
| 2026-05-04 08:02 | 52.42601 | 13.73218 | 2838 ft | 169 kts | 250° |
| 2026-05-04 08:02 | 52.42194 | 13.71485 | 2617 ft | 156 kts | 250° |
| 2026-05-04 08:02 | 52.41821 | 13.69896 | 2398 ft | 144 kts | 250° |
| 2026-05-04 08:03 | 52.41478 | 13.68436 | 2206 ft | 132 kts | 251° |
| 2026-05-04 08:03 | 52.41160 | 13.67085 | 2057 ft | 124 kts | 251° |
| 2026-05-04 08:03 | 52.40851 | 13.65764 | 1872 ft | 125 kts | 251° |
| 2026-05-04 08:03 | 52.40540 | 13.64443 | 1709 ft | 123 kts | 251° |
| 2026-05-04 08:04 | 52.40233 | 13.63139 | 1539 ft | 124 kts | 251° |
| 2026-05-04 08:04 | 52.39920 | 13.61818 | 1372 ft | 125 kts | 251° |
| 2026-05-04 08:04 | 52.39607 | 13.60488 | 1206 ft | 125 kts | 251° |
| 2026-05-04 08:04 | 52.39296 | 13.59159 | 1022 ft | 126 kts | 251° |
| 2026-05-04 08:05 | 52.38986 | 13.57832 | 880 ft | 126 kts | 250° |
| 2026-05-04 08:05 | 52.38665 | 13.56487 | 722 ft | 127 kts | 250° |
| 2026-05-04 08:05 | 52.38341 | 13.55143 | 507 ft | 128 kts | 249° |
| 2026-05-04 08:05 | 52.38023 | 13.53805 | 358 ft | 127 kts | 250° |
| 2026-05-04 08:06 | 52.37710 | 13.52436 | 175 ft | 125 kts | 250° |
| 2026-05-04 08:06 | 52.37440 | 13.51328 | 165 ft | 73 kts | 249° |
| 2026-05-04 08:06 | 52.37290 | 13.50708 | 165 ft | 63 kts | 249° |
| 2026-05-04 08:06 | 52.37103 | 13.50231 | 165 ft | 39 kts | 220° |
| 2026-05-04 08:08 | 52.36209 | 13.50551 | 165 ft | 10 kts | 161° |
| 2026-05-04 08:08 | 52.36153 | 13.50585 | 165 ft | 7 kts | 159° |
| 2026-05-04 08:10 | 52.36138 | 13.50750 | 165 ft | 0 kts | 70° |